sensor_id;sensor_type;location;lat;lon;timestamp;temperature;humidity
75430;DHT22;64127;51.488;5.462;2023-04-01T00:00:31;10.80;99.90
75430;DHT22;64127;51.488;5.462;2023-04-01T00:03:04;10.80;99.90
75430;DHT22;64127;51.488;5.462;2023-04-01T00:05:36;10.80;99.90
75430;DHT22;64127;51.488;5.462;2023-04-01T00:08:09;10.80;99.90
75430;DHT22;64127;51.488;5.462;2023-04-01T00:10:42;10.70;99.90
75430;DHT22;64127;51.488;5.462;2023-04-01T00:13:14;10.80;99.90
75430;DHT22;64127;51.488;5.462;2023-04-01T00:15:47;10.70;99.90
75430;DHT22;64127;51.488;5.462;2023-04-01T00:18:19;10.70;99.90
75430;DHT22;64127;51.488;5.462;2023-04-01T00:20:52;10.70;99.90
75430;DHT22;64127;51.488;5.462;2023-04-01T00:23:26;10.70;99.90
75430;DHT22;64127;51.488;5.462;2023-04-01T00:26:00;10.70;99.90
75430;DHT22;64127;51.488;5.462;2023-04-01T00:28:34;10.70;99.90
75430;DHT22;64127;51.488;5.462;2023-04-01T00:31:07;10.80;99.90
75430;DHT22;64127;51.488;5.462;2023-04-01T00:33:40;10.80;99.90
75430;DHT22;64127;51.488;5.462;2023-04-01T00:36:17;10.80;99.90
75430;DHT22;64127;51.488;5.462;2023-04-01T00:38:50;10.70;99.90
75430;DHT22;64127;51.488;5.462;2023-04-01T00:41:23;10.70;99.90
75430;DHT22;64127;51.488;5.462;2023-04-01T00:44:18;10.80;99.90
75430;DHT22;64127;51.488;5.462;2023-04-01T00:46:52;10.70;99.90
75430;DHT22;64127;51.488;5.462;2023-04-01T00:49:36;10.70;99.90
75430;DHT22;64127;51.488;5.462;2023-04-01T00:52:15;10.70;99.90
75430;DHT22;64127;51.488;5.462;2023-04-01T00:54:55;10.70;99.90
75430;DHT22;64127;51.488;5.462;2023-04-01T00:57:34;10.70;99.90
75430;DHT22;64127;51.488;5.462;2023-04-01T01:00:11;10.70;99.90
75430;DHT22;64127;51.488;5.462;2023-04-01T01:02:46;10.70;99.90
75430;DHT22;64127;51.488;5.462;2023-04-01T01:05:27;10.70;99.90
75430;DHT22;64127;51.488;5.462;2023-04-01T01:08:47;10.70;99.90
75430;DHT22;64127;51.488;5.462;2023-04-01T01:11:32;10.70;99.90
75430;DHT22;64127;51.488;5.462;2023-04-01T01:14:25;10.70;99.90
75430;DHT22;64127;51.488;5.462;2023-04-01T01:17:38;10.70;99.90
75430;DHT22;64127;51.488;5.462;2023-04-01T01:26:58;10.70;99.90
75430;DHT22;64127;51.488;5.462;2023-04-01T01:32:12;10.70;99.90
75430;DHT22;64127;51.488;5.462;2023-04-01T01:37:37;10.70;99.90
75430;DHT22;64127;51.488;5.462;2023-04-01T01:40:12;10.70;99.90
75430;DHT22;64127;51.488;5.462;2023-04-01T01:42:51;10.70;99.90
75430;DHT22;64127;51.488;5.462;2023-04-01T01:45:28;10.70;99.90
75430;DHT22;64127;51.488;5.462;2023-04-01T01:48:04;10.70;99.90
75430;DHT22;64127;51.488;5.462;2023-04-01T01:50:40;10.70;99.90
75430;DHT22;64127;51.488;5.462;2023-04-01T01:53:14;10.70;99.90
75430;DHT22;64127;51.488;5.462;2023-04-01T01:55:47;10.70;99.90
75430;DHT22;64127;51.488;5.462;2023-04-01T01:58:33;10.70;99.90
75430;DHT22;64127;51.488;5.462;2023-04-01T02:01:16;10.70;99.90
75430;DHT22;64127;51.488;5.462;2023-04-01T02:03:52;10.70;99.90
75430;DHT22;64127;51.488;5.462;2023-04-01T02:06:28;10.70;99.90
75430;DHT22;64127;51.488;5.462;2023-04-01T02:09:07;10.70;99.90
75430;DHT22;64127;51.488;5.462;2023-04-01T02:11:44;10.70;99.90
75430;DHT22;64127;51.488;5.462;2023-04-01T02:14:23;10.70;99.90
75430;DHT22;64127;51.488;5.462;2023-04-01T02:17:09;10.60;99.90
75430;DHT22;64127;51.488;5.462;2023-04-01T02:19:56;10.70;99.90
75430;DHT22;64127;51.488;5.462;2023-04-01T02:22:37;10.60;99.90
75430;DHT22;64127;51.488;5.462;2023-04-01T02:25:18;10.60;99.90
75430;DHT22;64127;51.488;5.462;2023-04-01T02:27:55;10.60;99.90
75430;DHT22;64127;51.488;5.462;2023-04-01T02:30:29;10.60;99.90
75430;DHT22;64127;51.488;5.462;2023-04-01T02:33:05;10.60;99.90
75430;DHT22;64127;51.488;5.462;2023-04-01T02:35:38;10.60;99.90
75430;DHT22;64127;51.488;5.462;2023-04-01T02:38:10;10.60;99.90
75430;DHT22;64127;51.488;5.462;2023-04-01T02:40:51;10.60;99.90
75430;DHT22;64127;51.488;5.462;2023-04-01T02:43:28;10.60;99.90
75430;DHT22;64127;51.488;5.462;2023-04-01T02:46:00;10.60;99.90
75430;DHT22;64127;51.488;5.462;2023-04-01T02:48:33;10.60;99.90
75430;DHT22;64127;51.488;5.462;2023-04-01T02:51:05;10.60;99.90
75430;DHT22;64127;51.488;5.462;2023-04-01T02:53:37;10.60;99.90
75430;DHT22;64127;51.488;5.462;2023-04-01T02:56:09;10.60;99.90
75430;DHT22;64127;51.488;5.462;2023-04-01T02:58:41;10.60;99.90
75430;DHT22;64127;51.488;5.462;2023-04-01T03:01:14;10.50;99.90
75430;DHT22;64127;51.488;5.462;2023-04-01T03:03:46;10.60;99.90
75430;DHT22;64127;51.488;5.462;2023-04-01T03:06:18;10.50;99.90
75430;DHT22;64127;51.488;5.462;2023-04-01T03:08:50;10.60;99.90
75430;DHT22;64127;51.488;5.462;2023-04-01T03:11:22;10.50;99.90
75430;DHT22;64127;51.488;5.462;2023-04-01T03:13:54;10.50;99.90
75430;DHT22;64127;51.488;5.462;2023-04-01T03:16:26;10.50;99.90
75430;DHT22;64127;51.488;5.462;2023-04-01T03:18:58;10.50;99.90
75430;DHT22;64127;51.488;5.462;2023-04-01T03:21:33;10.40;99.90
75430;DHT22;64127;51.488;5.462;2023-04-01T03:24:05;10.50;99.90
75430;DHT22;64127;51.488;5.462;2023-04-01T03:26:37;10.50;99.90
75430;DHT22;64127;51.488;5.462;2023-04-01T03:29:09;10.50;99.90
75430;DHT22;64127;51.488;5.462;2023-04-01T03:31:41;10.50;99.90
75430;DHT22;64127;51.488;5.462;2023-04-01T03:34:13;10.50;99.90
75430;DHT22;64127;51.488;5.462;2023-04-01T03:36:46;10.40;99.90
75430;DHT22;64127;51.488;5.462;2023-04-01T03:39:18;10.40;99.90
75430;DHT22;64127;51.488;5.462;2023-04-01T03:41:50;10.40;99.90
75430;DHT22;64127;51.488;5.462;2023-04-01T03:44:22;10.50;99.90
75430;DHT22;64127;51.488;5.462;2023-04-01T03:46:54;10.40;99.90
75430;DHT22;64127;51.488;5.462;2023-04-01T03:49:27;10.40;99.90
75430;DHT22;64127;51.488;5.462;2023-04-01T03:51:59;10.40;99.90
75430;DHT22;64127;51.488;5.462;2023-04-01T03:54:31;10.40;99.90
75430;DHT22;64127;51.488;5.462;2023-04-01T03:57:03;10.40;99.90
75430;DHT22;64127;51.488;5.462;2023-04-01T03:59:36;10.40;99.90
75430;DHT22;64127;51.488;5.462;2023-04-01T04:02:08;10.40;99.90
75430;DHT22;64127;51.488;5.462;2023-04-01T04:04:40;10.40;99.90
75430;DHT22;64127;51.488;5.462;2023-04-01T04:07:13;10.40;99.90
75430;DHT22;64127;51.488;5.462;2023-04-01T04:09:45;10.40;99.90
75430;DHT22;64127;51.488;5.462;2023-04-01T04:12:17;10.40;99.90
75430;DHT22;64127;51.488;5.462;2023-04-01T04:14:48;10.40;99.90
75430;DHT22;64127;51.488;5.462;2023-04-01T04:17:21;10.40;99.90
75430;DHT22;64127;51.488;5.462;2023-04-01T04:19:53;10.40;99.90
75430;DHT22;64127;51.488;5.462;2023-04-01T04:22:25;10.40;99.90
75430;DHT22;64127;51.488;5.462;2023-04-01T04:24:57;10.40;99.90
75430;DHT22;64127;51.488;5.462;2023-04-01T04:27:29;10.40;99.90
75430;DHT22;64127;51.488;5.462;2023-04-01T04:30:01;10.30;99.90
75430;DHT22;64127;51.488;5.462;2023-04-01T04:32:34;10.30;99.90
75430;DHT22;64127;51.488;5.462;2023-04-01T04:35:07;10.30;99.90
75430;DHT22;64127;51.488;5.462;2023-04-01T04:37:39;10.40;99.90
75430;DHT22;64127;51.488;5.462;2023-04-01T04:40:11;10.30;99.90
75430;DHT22;64127;51.488;5.462;2023-04-01T04:42:43;10.30;99.90
75430;DHT22;64127;51.488;5.462;2023-04-01T04:45:16;10.30;99.90
75430;DHT22;64127;51.488;5.462;2023-04-01T04:47:48;10.30;99.90
75430;DHT22;64127;51.488;5.462;2023-04-01T04:50:20;10.30;99.90
75430;DHT22;64127;51.488;5.462;2023-04-01T04:52:52;10.30;99.90
75430;DHT22;64127;51.488;5.462;2023-04-01T04:55:25;10.30;99.90
75430;DHT22;64127;51.488;5.462;2023-04-01T04:57:57;10.30;99.90
75430;DHT22;64127;51.488;5.462;2023-04-01T05:00:29;10.20;99.90
75430;DHT22;64127;51.488;5.462;2023-04-01T05:03:01;10.30;99.90
75430;DHT22;64127;51.488;5.462;2023-04-01T05:05:33;10.20;99.90
75430;DHT22;64127;51.488;5.462;2023-04-01T05:08:05;10.20;99.90
75430;DHT22;64127;51.488;5.462;2023-04-01T05:10:37;10.20;99.90
75430;DHT22;64127;51.488;5.462;2023-04-01T05:13:09;10.20;99.90
75430;DHT22;64127;51.488;5.462;2023-04-01T05:15:42;10.20;99.90
75430;DHT22;64127;51.488;5.462;2023-04-01T05:18:14;10.20;99.90
75430;DHT22;64127;51.488;5.462;2023-04-01T05:20:53;10.20;99.90
75430;DHT22;64127;51.488;5.462;2023-04-01T05:23:26;10.20;99.90
75430;DHT22;64127;51.488;5.462;2023-04-01T05:25:58;10.20;99.90
75430;DHT22;64127;51.488;5.462;2023-04-01T05:28:33;10.20;99.90
75430;DHT22;64127;51.488;5.462;2023-04-01T05:31:07;10.20;99.90
75430;DHT22;64127;51.488;5.462;2023-04-01T05:33:40;10.10;99.90
75430;DHT22;64127;51.488;5.462;2023-04-01T05:36:14;10.20;99.90
75430;DHT22;64127;51.488;5.462;2023-04-01T05:38:47;10.20;99.90
75430;DHT22;64127;51.488;5.462;2023-04-01T05:41:19;10.10;99.90
75430;DHT22;64127;51.488;5.462;2023-04-01T05:43:51;10.20;99.90
75430;DHT22;64127;51.488;5.462;2023-04-01T05:46:23;10.20;99.90
75430;DHT22;64127;51.488;5.462;2023-04-01T05:48:55;10.20;99.90
75430;DHT22;64127;51.488;5.462;2023-04-01T05:51:27;10.20;99.90
75430;DHT22;64127;51.488;5.462;2023-04-01T05:53:59;10.20;99.90
75430;DHT22;64127;51.488;5.462;2023-04-01T05:56:31;10.20;99.90
75430;DHT22;64127;51.488;5.462;2023-04-01T05:59:03;10.20;99.90
75430;DHT22;64127;51.488;5.462;2023-04-01T06:01:35;10.20;99.90
75430;DHT22;64127;51.488;5.462;2023-04-01T06:04:12;10.20;99.90
75430;DHT22;64127;51.488;5.462;2023-04-01T06:06:47;10.20;99.90
75430;DHT22;64127;51.488;5.462;2023-04-01T06:09:26;10.20;99.90
75430;DHT22;64127;51.488;5.462;2023-04-01T06:24:13;10.20;99.90
75430;DHT22;64127;51.488;5.462;2023-04-01T06:30:03;10.20;99.90
75430;DHT22;64127;51.488;5.462;2023-04-01T06:32:59;10.20;99.90
75430;DHT22;64127;51.488;5.462;2023-04-01T06:35:44;10.20;99.90
75430;DHT22;64127;51.488;5.462;2023-04-01T06:38:30;10.20;99.90
75430;DHT22;64127;51.488;5.462;2023-04-01T06:55:51;10.30;99.90
75430;DHT22;64127;51.488;5.462;2023-04-01T06:58:39;10.30;99.90
75430;DHT22;64127;51.488;5.462;2023-04-01T07:01:23;10.30;99.90
75430;DHT22;64127;51.488;5.462;2023-04-01T07:04:13;10.30;99.90
75430;DHT22;64127;51.488;5.462;2023-04-01T07:06:54;10.30;99.90
75430;DHT22;64127;51.488;5.462;2023-04-01T07:09:35;10.40;99.90
75430;DHT22;64127;51.488;5.462;2023-04-01T07:15:30;10.50;99.90
75430;DHT22;64127;51.488;5.462;2023-04-01T07:18:21;10.50;99.90
75430;DHT22;64127;51.488;5.462;2023-04-01T07:21:01;10.60;99.90
75430;DHT22;64127;51.488;5.462;2023-04-01T07:23:39;10.60;99.90
75430;DHT22;64127;51.488;5.462;2023-04-01T07:26:21;10.60;99.90
75430;DHT22;64127;51.488;5.462;2023-04-01T07:28:57;10.60;99.90
75430;DHT22;64127;51.488;5.462;2023-04-01T07:37:49;10.70;99.90
75430;DHT22;64127;51.488;5.462;2023-04-01T07:43:34;10.70;99.90
75430;DHT22;64127;51.488;5.462;2023-04-01T07:52:43;10.80;99.90
75430;DHT22;64127;51.488;5.462;2023-04-01T07:55:54;10.80;99.90
75430;DHT22;64127;51.488;5.462;2023-04-01T08:04:48;10.80;99.90
75430;DHT22;64127;51.488;5.462;2023-04-01T08:07:45;10.80;99.90
75430;DHT22;64127;51.488;5.462;2023-04-01T08:10:50;10.80;99.90
75430;DHT22;64127;51.488;5.462;2023-04-01T08:13:44;10.80;99.90
75430;DHT22;64127;51.488;5.462;2023-04-01T08:20:14;10.90;99.90
75430;DHT22;64127;51.488;5.462;2023-04-01T08:23:22;11.00;99.90
75430;DHT22;64127;51.488;5.462;2023-04-01T08:29:02;11.10;99.90
75430;DHT22;64127;51.488;5.462;2023-04-01T08:34:32;11.20;99.90
75430;DHT22;64127;51.488;5.462;2023-04-01T08:37:14;11.20;99.90
75430;DHT22;64127;51.488;5.462;2023-04-01T08:40:00;11.20;99.90
75430;DHT22;64127;51.488;5.462;2023-04-01T09:31:42;11.50;99.90
75430;DHT22;64127;51.488;5.462;2023-04-01T09:40:31;11.50;99.90
75430;DHT22;64127;51.488;5.462;2023-04-01T09:46:42;11.40;99.90
75430;DHT22;64127;51.488;5.462;2023-04-01T10:06:43;11.30;99.90
75430;DHT22;64127;51.488;5.462;2023-04-01T11:22:08;11.30;99.90
75430;DHT22;64127;51.488;5.462;2023-04-01T11:28:18;11.30;99.90
75430;DHT22;64127;51.488;5.462;2023-04-01T11:31:11;11.30;99.90
75430;DHT22;64127;51.488;5.462;2023-04-01T11:40:18;11.40;99.90
75430;DHT22;64127;51.488;5.462;2023-04-01T11:43:27;11.40;99.90
75430;DHT22;64127;51.488;5.462;2023-04-01T11:46:30;11.40;99.90
75430;DHT22;64127;51.488;5.462;2023-04-01T11:55:56;11.40;99.90
75430;DHT22;64127;51.488;5.462;2023-04-01T12:02:40;11.40;99.90
75430;DHT22;64127;51.488;5.462;2023-04-01T12:08:37;11.50;99.90
75430;DHT22;64127;51.488;5.462;2023-04-01T12:14:38;11.50;99.90
75430;DHT22;64127;51.488;5.462;2023-04-01T12:17:43;11.50;99.90
75430;DHT22;64127;51.488;5.462;2023-04-01T12:26:15;11.40;99.90
75430;DHT22;64127;51.488;5.462;2023-04-01T12:29:29;11.40;99.90
75430;DHT22;64127;51.488;5.462;2023-04-01T12:36:08;11.50;99.90
75430;DHT22;64127;51.488;5.462;2023-04-01T12:38:52;11.50;99.90
75430;DHT22;64127;51.488;5.462;2023-04-01T12:41:32;11.50;99.90
75430;DHT22;64127;51.488;5.462;2023-04-01T12:50:35;11.50;99.90
75430;DHT22;64127;51.488;5.462;2023-04-01T13:05:23;11.60;99.90
75430;DHT22;64127;51.488;5.462;2023-04-01T13:08:30;11.50;99.90
75430;DHT22;64127;51.488;5.462;2023-04-01T13:17:54;11.60;99.90
75430;DHT22;64127;51.488;5.462;2023-04-01T13:26:36;11.70;99.90
75430;DHT22;64127;51.488;5.462;2023-04-01T13:41:47;11.60;99.90
75430;DHT22;64127;51.488;5.462;2023-04-01T13:44:39;11.60;99.90
75430;DHT22;64127;51.488;5.462;2023-04-01T13:58:42;11.60;99.90
75430;DHT22;64127;51.488;5.462;2023-04-01T14:01:41;11.60;99.90
75430;DHT22;64127;51.488;5.462;2023-04-01T14:04:44;11.50;99.90
75430;DHT22;64127;51.488;5.462;2023-04-01T14:10:30;11.50;99.90
75430;DHT22;64127;51.488;5.462;2023-04-01T14:13:43;11.50;99.90
75430;DHT22;64127;51.488;5.462;2023-04-01T14:16:37;11.40;99.90
75430;DHT22;64127;51.488;5.462;2023-04-01T14:20:35;11.40;99.90
75430;DHT22;64127;51.488;5.462;2023-04-01T14:38:06;11.50;99.90
75430;DHT22;64127;51.488;5.462;2023-04-01T14:50:21;11.50;99.90
75430;DHT22;64127;51.488;5.462;2023-04-01T14:58:18;11.50;99.90
75430;DHT22;64127;51.488;5.462;2023-04-01T15:06:50;11.60;99.90
75430;DHT22;64127;51.488;5.462;2023-04-01T15:16:10;11.60;99.90
75430;DHT22;64127;51.488;5.462;2023-04-01T15:19:15;11.60;99.90
75430;DHT22;64127;51.488;5.462;2023-04-01T15:25:31;11.60;99.90
75430;DHT22;64127;51.488;5.462;2023-04-01T15:28:28;11.60;99.90
75430;DHT22;64127;51.488;5.462;2023-04-01T15:31:31;11.50;99.90
75430;DHT22;64127;51.488;5.462;2023-04-01T15:55:27;11.50;99.90
75430;DHT22;64127;51.488;5.462;2023-04-01T16:01:04;11.40;99.90
75430;DHT22;64127;51.488;5.462;2023-04-01T16:07:47;11.40;99.90
75430;DHT22;64127;51.488;5.462;2023-04-01T16:10:42;11.40;99.90
75430;DHT22;64127;51.488;5.462;2023-04-01T16:31:15;11.30;99.90
75430;DHT22;64127;51.488;5.462;2023-04-01T16:34:08;11.30;99.90
75430;DHT22;64127;51.488;5.462;2023-04-01T16:36:53;11.30;99.90
75430;DHT22;64127;51.488;5.462;2023-04-01T16:48:10;11.30;99.90
75430;DHT22;64127;51.488;5.462;2023-04-01T16:50:58;11.30;99.90
75430;DHT22;64127;51.488;5.462;2023-04-01T16:53:46;11.20;99.90
75430;DHT22;64127;51.488;5.462;2023-04-01T16:56:38;11.30;99.90
75430;DHT22;64127;51.488;5.462;2023-04-01T16:59:21;11.30;99.90
75430;DHT22;64127;51.488;5.462;2023-04-01T17:04:43;11.30;99.90
75430;DHT22;64127;51.488;5.462;2023-04-01T17:25:25;11.40;99.90
75430;DHT22;64127;51.488;5.462;2023-04-01T17:42:49;11.50;99.90
75430;DHT22;64127;51.488;5.462;2023-04-01T17:51:48;11.60;99.90
75430;DHT22;64127;51.488;5.462;2023-04-01T17:54:43;11.70;99.90
75430;DHT22;64127;51.488;5.462;2023-04-01T17:58:17;11.70;99.90
75430;DHT22;64127;51.488;5.462;2023-04-01T18:01:03;11.70;99.90
75430;DHT22;64127;51.488;5.462;2023-04-01T18:10:17;11.70;99.90
75430;DHT22;64127;51.488;5.462;2023-04-01T18:21:55;11.80;99.90
75430;DHT22;64127;51.488;5.462;2023-04-01T18:24:40;11.80;99.90
75430;DHT22;64127;51.488;5.462;2023-04-01T18:27:30;11.80;99.90
75430;DHT22;64127;51.488;5.462;2023-04-01T18:30:28;11.80;99.90
75430;DHT22;64127;51.488;5.462;2023-04-01T18:33:18;11.80;99.90
75430;DHT22;64127;51.488;5.462;2023-04-01T18:36:13;11.80;99.90
75430;DHT22;64127;51.488;5.462;2023-04-01T18:39:09;11.80;99.90
75430;DHT22;64127;51.488;5.462;2023-04-01T18:41:56;11.80;99.90
75430;DHT22;64127;51.488;5.462;2023-04-01T18:47:34;11.70;99.90
75430;DHT22;64127;51.488;5.462;2023-04-01T18:50:37;11.70;99.90
75430;DHT22;64127;51.488;5.462;2023-04-01T18:56:11;11.70;99.90
75430;DHT22;64127;51.488;5.462;2023-04-01T18:58:54;11.70;99.90
75430;DHT22;64127;51.488;5.462;2023-04-01T19:01:56;11.60;99.90
75430;DHT22;64127;51.488;5.462;2023-04-01T19:04:41;11.60;99.90
75430;DHT22;64127;51.488;5.462;2023-04-01T19:13:35;11.60;99.90
75430;DHT22;64127;51.488;5.462;2023-04-01T19:23:11;11.60;99.90
75430;DHT22;64127;51.488;5.462;2023-04-01T19:25:40;11.60;99.90
75430;DHT22;64127;51.488;5.462;2023-04-01T19:28:55;11.50;99.90
75430;DHT22;64127;51.488;5.462;2023-04-01T19:34:54;11.50;99.90
75430;DHT22;64127;51.488;5.462;2023-04-01T19:40:41;11.40;99.90
75430;DHT22;64127;51.488;5.462;2023-04-01T19:46:45;11.40;99.90
75430;DHT22;64127;51.488;5.462;2023-04-01T19:49:36;11.40;99.90
75430;DHT22;64127;51.488;5.462;2023-04-01T19:52:40;11.40;99.90
75430;DHT22;64127;51.488;5.462;2023-04-01T19:55:37;11.30;99.90
75430;DHT22;64127;51.488;5.462;2023-04-01T19:58:37;11.30;99.90
75430;DHT22;64127;51.488;5.462;2023-04-01T20:04:34;11.30;99.90
75430;DHT22;64127;51.488;5.462;2023-04-01T20:07:24;11.20;99.90
75430;DHT22;64127;51.488;5.462;2023-04-01T20:10:17;11.20;99.90
75430;DHT22;64127;51.488;5.462;2023-04-01T20:15:47;11.20;99.90
75430;DHT22;64127;51.488;5.462;2023-04-01T20:29:59;11.10;99.90
75430;DHT22;64127;51.488;5.462;2023-04-01T20:33:16;11.10;99.90
75430;DHT22;64127;51.488;5.462;2023-04-01T20:45:42;11.00;99.90
75430;DHT22;64127;51.488;5.462;2023-04-01T20:48:51;11.00;99.90
75430;DHT22;64127;51.488;5.462;2023-04-01T20:51:43;11.00;99.90
75430;DHT22;64127;51.488;5.462;2023-04-01T21:00:31;11.00;99.90
75430;DHT22;64127;51.488;5.462;2023-04-01T21:03:38;11.00;99.90
75430;DHT22;64127;51.488;5.462;2023-04-01T21:12:04;10.90;99.90
75430;DHT22;64127;51.488;5.462;2023-04-01T21:17:41;10.80;99.90
75430;DHT22;64127;51.488;5.462;2023-04-01T21:42:04;10.80;99.90
75430;DHT22;64127;51.488;5.462;2023-04-01T21:45:20;10.80;99.90
75430;DHT22;64127;51.488;5.462;2023-04-01T22:09:13;10.50;99.90
75430;DHT22;64127;51.488;5.462;2023-04-01T22:12:14;10.50;99.90
75430;DHT22;64127;51.488;5.462;2023-04-01T22:18:12;10.40;99.90
75430;DHT22;64127;51.488;5.462;2023-04-01T22:21:16;10.40;99.90
75430;DHT22;64127;51.488;5.462;2023-04-01T22:26:57;10.30;99.90
75430;DHT22;64127;51.488;5.462;2023-04-01T22:30:06;10.30;99.90
75430;DHT22;64127;51.488;5.462;2023-04-01T22:44:58;10.20;99.90
75430;DHT22;64127;51.488;5.462;2023-04-01T23:00:33;10.10;99.90
75430;DHT22;64127;51.488;5.462;2023-04-01T23:05:52;10.00;99.90
75430;DHT22;64127;51.488;5.462;2023-04-01T23:12:07;9.90;99.90
75430;DHT22;64127;51.488;5.462;2023-04-01T23:14:47;9.90;99.90
75430;DHT22;64127;51.488;5.462;2023-04-01T23:17:25;10.00;99.90
75430;DHT22;64127;51.488;5.462;2023-04-01T23:20:17;10.00;99.90
75430;DHT22;64127;51.488;5.462;2023-04-01T23:23:14;10.00;99.90
75430;DHT22;64127;51.488;5.462;2023-04-01T23:26:08;10.00;99.90
75430;DHT22;64127;51.488;5.462;2023-04-01T23:36:53;10.00;99.90
75430;DHT22;64127;51.488;5.462;2023-04-01T23:39:40;9.90;99.90
75430;DHT22;64127;51.488;5.462;2023-04-01T23:42:23;9.90;99.90
75430;DHT22;64127;51.488;5.462;2023-04-01T23:45:03;9.90;99.90
75430;DHT22;64127;51.488;5.462;2023-04-01T23:47:41;9.90;99.90
75430;DHT22;64127;51.488;5.462;2023-04-01T23:50:23;9.90;99.90
75430;DHT22;64127;51.488;5.462;2023-04-01T23:53:03;9.80;99.90
75430;DHT22;64127;51.488;5.462;2023-04-01T23:55:43;9.80;99.90
75430;DHT22;64127;51.488;5.462;2023-04-01T23:58:21;9.80;99.90
